Terminal Aerodrome Forecast
Issued by NWS

Home | Current Version | Previous Version | Text Only | Print | Product List | Glossary On
Versions: 1 2 3 4 5 6 7 8 9 10 11 12 13 14 15 16 17 18 19 20 21 22 23 24
575
FTUS43 KSGF 252058 AAA
TAFJLN
TAF AMD
KJLN 252058Z 2521/2618 19014G19KT P6SM SCT060
     FM252300 19012KT P6SM SCT050
     FM260700 19009KT P6SM SCT025 BKN040
     FM261500 19012KT P6SM BKN050=

USA.gov is the U.S. government's official web portal to all federal, state and local government web resources and services.